sensor_id;sensor_type;location;lat;lon;timestamp;pressure;altitude;pressure_sealevel;temperature;humidity
32452;BME280;45528;52.102;5.242;2023-03-16T00:02:11;101371.0;;;11.15;48.75
32452;BME280;45528;52.102;5.242;2023-03-16T00:03:47;101366.0;;;11.25;48.21
32452;BME280;45528;52.102;5.242;2023-03-16T00:05:24;101371.0;;;11.25;48.33
32452;BME280;45528;52.102;5.242;2023-03-16T00:08:36;101368.0;;;11.31;48.14
32452;BME280;45528;52.102;5.242;2023-03-16T00:10:12;101365.0;;;11.19;48.59
32452;BME280;45528;52.102;5.242;2023-03-16T00:11:49;101358.0;;;11.32;48.52
32452;BME280;45528;52.102;5.242;2023-03-16T00:15:02;101350.0;;;11.13;48.7
32452;BME280;45528;52.102;5.242;2023-03-16T00:16:38;101346.0;;;11.32;48.54
32452;BME280;45528;52.102;5.242;2023-03-16T00:18:14;101351.0;;;11.32;48.65
32452;BME280;45528;52.102;5.242;2023-03-16T00:19:51;101349.0;;;11.2;48.93
32452;BME280;45528;52.102;5.242;2023-03-16T00:23:05;101347.0;;;11.3;48.59
32452;BME280;45528;52.102;5.242;2023-03-16T00:24:42;101344.0;;;11.3;48.75
32452;BME280;45528;52.102;5.242;2023-03-16T00:26:17;101344.0;;;11.32;48.81
32452;BME280;45528;52.102;5.242;2023-03-16T00:29:30;101342.0;;;11.21;48.98
32452;BME280;45528;52.102;5.242;2023-03-16T00:31:07;101341.0;;;11.18;49.29
32452;BME280;45528;52.102;5.242;2023-03-16T00:32:45;101336.0;;;11.22;49.2
32452;BME280;45528;52.102;5.242;2023-03-16T00:35:57;101332.0;;;11.29;49.11
32452;BME280;45528;52.102;5.242;2023-03-16T00:37:33;101333.0;;;11.16;49.69
32452;BME280;45528;52.102;5.242;2023-03-16T00:39:09;101325.0;;;11.23;49.57
32452;BME280;45528;52.102;5.242;2023-03-16T00:40:46;101322.0;;;11.28;49.44
32452;BME280;45528;52.102;5.242;2023-03-16T00:44:00;101322.0;;;11.32;49.38
32452;BME280;45528;52.102;5.242;2023-03-16T00:45:36;101325.0;;;11.23;49.89
32452;BME280;45528;52.102;5.242;2023-03-16T00:47:13;101324.0;;;11.25;49.51
32452;BME280;45528;52.102;5.242;2023-03-16T00:50:25;101324.0;;;11.24;49.57
32452;BME280;45528;52.102;5.242;2023-03-16T00:52:02;101322.0;;;11.25;49.86
32452;BME280;45528;52.102;5.242;2023-03-16T00:53:40;101321.0;;;11.33;49.77
32452;BME280;45528;52.102;5.242;2023-03-16T00:56:53;101325.0;;;11.32;49.93
32452;BME280;45528;52.102;5.242;2023-03-16T00:58:29;101316.0;;;11.09;50.47
32452;BME280;45528;52.102;5.242;2023-03-16T01:00:06;101306.0;;;11.09;50.29
32452;BME280;45528;52.102;5.242;2023-03-16T01:01:42;101299.0;;;11.26;50.23
32452;BME280;45528;52.102;5.242;2023-03-16T01:04:54;101298.0;;;11.29;50.42
32452;BME280;45528;52.102;5.242;2023-03-16T01:06:30;101298.0;;;11.35;50.13
32452;BME280;45528;52.102;5.242;2023-03-16T01:08:07;101285.0;;;11.22;50.12
32452;BME280;45528;52.102;5.242;2023-03-16T01:11:22;101285.0;;;11.14;50.84
32452;BME280;45528;52.102;5.242;2023-03-16T01:12:59;101284.0;;;11.08;50.94
32452;BME280;45528;52.102;5.242;2023-03-16T01:14:35;101283.0;;;11.29;50.77
32452;BME280;45528;52.102;5.242;2023-03-16T01:17:49;101282.0;;;11.24;50.77
32452;BME280;45528;52.102;5.242;2023-03-16T01:19:25;101277.0;;;11.18;50.89
32452;BME280;45528;52.102;5.242;2023-03-16T01:21:05;101286.0;;;11.18;50.89
32452;BME280;45528;52.102;5.242;2023-03-16T01:22:41;101282.0;;;11.39;50.4
32452;BME280;45528;52.102;5.242;2023-03-16T01:25:54;101280.0;;;11.24;50.84
32452;BME280;45528;52.102;5.242;2023-03-16T01:27:31;101271.0;;;11.32;50.72
32452;BME280;45528;52.102;5.242;2023-03-16T01:29:07;101270.0;;;11.43;50.49
32452;BME280;45528;52.102;5.242;2023-03-16T01:32:19;101268.0;;;11.46;50.87
32452;BME280;45528;52.102;5.242;2023-03-16T01:33:55;101265.0;;;11.26;51.08
32452;BME280;45528;52.102;5.242;2023-03-16T01:35:33;101269.0;;;11.36;50.83
32452;BME280;45528;52.102;5.242;2023-03-16T01:38:45;101259.0;;;11.4;50.8
32452;BME280;45528;52.102;5.242;2023-03-16T01:40:22;101256.0;;;11.43;50.85
32452;BME280;45528;52.102;5.242;2023-03-16T01:41:58;101252.0;;;11.33;50.99
32452;BME280;45528;52.102;5.242;2023-03-16T01:43:36;101252.0;;;11.34;51.11
32452;BME280;45528;52.102;5.242;2023-03-16T01:47:59;101253.0;;;11.43;50.99
32452;BME280;45528;52.102;5.242;2023-03-16T01:51:15;101247.0;;;11.43;50.91
32452;BME280;45528;52.102;5.242;2023-03-16T01:52:53;101241.0;;;11.52;50.95
32452;BME280;45528;52.102;5.242;2023-03-16T01:54:31;101234.0;;;11.47;51.21
32452;BME280;45528;52.102;5.242;2023-03-16T01:56:12;101226.0;;;11.36;51.57
32452;BME280;45528;52.102;5.242;2023-03-16T01:59:33;101225.0;;;11.4;51.26
32452;BME280;45528;52.102;5.242;2023-03-16T02:01:13;101228.0;;;11.4;51.31
32452;BME280;45528;52.102;5.242;2023-03-16T02:02:52;101226.0;;;11.33;51.63
32452;BME280;45528;52.102;5.242;2023-03-16T02:04:38;101221.0;;;11.53;51.18
32452;BME280;45528;52.102;5.242;2023-03-16T02:07:55;101216.0;;;11.34;51.78
32452;BME280;45528;52.102;5.242;2023-03-16T02:09:33;101223.0;;;11.48;51.34
32452;BME280;45528;52.102;5.242;2023-03-16T02:11:13;101216.0;;;11.52;51.39
32452;BME280;45528;52.102;5.242;2023-03-16T02:12:50;101212.0;;;11.34;52.03
32452;BME280;45528;52.102;5.242;2023-03-16T02:16:05;101210.0;;;11.35;52.21
32452;BME280;45528;52.102;5.242;2023-03-16T02:17:44;101205.0;;;11.44;52.13
32452;BME280;45528;52.102;5.242;2023-03-16T02:19:30;101205.0;;;11.4;52.4
32452;BME280;45528;52.102;5.242;2023-03-16T02:21:14;101197.0;;;11.39;52.55
32452;BME280;45528;52.102;5.242;2023-03-16T02:24:33;101201.0;;;11.41;52.76
32452;BME280;45528;52.102;5.242;2023-03-16T02:26:14;101200.0;;;11.44;52.61
32452;BME280;45528;52.102;5.242;2023-03-16T02:28:01;101193.0;;;11.49;52.39
32452;BME280;45528;52.102;5.242;2023-03-16T02:30:01;101191.0;;;11.49;52.79
32452;BME280;45528;52.102;5.242;2023-03-16T02:31:51;101190.0;;;11.4;52.76
32452;BME280;45528;52.102;5.242;2023-03-16T02:35:09;101186.0;;;11.41;53.02
32452;BME280;45528;52.102;5.242;2023-03-16T02:36:47;101190.0;;;11.37;52.75
32452;BME280;45528;52.102;5.242;2023-03-16T02:38:25;101184.0;;;11.36;52.9
32452;BME280;45528;52.102;5.242;2023-03-16T02:40:12;101190.0;;;11.46;52.8
32452;BME280;45528;52.102;5.242;2023-03-16T02:43:32;101191.0;;;11.45;52.9
32452;BME280;45528;52.102;5.242;2023-03-16T02:45:11;101193.0;;;11.47;52.86
32452;BME280;45528;52.102;5.242;2023-03-16T02:46:47;101196.0;;;11.42;53.14
32452;BME280;45528;52.102;5.242;2023-03-16T02:48:27;101194.0;;;11.33;53.5
32452;BME280;45528;52.102;5.242;2023-03-16T02:51:47;101198.0;;;11.28;53.81
32452;BME280;45528;52.102;5.242;2023-03-16T02:53:24;101201.0;;;11.39;53.9
32452;BME280;45528;52.102;5.242;2023-03-16T02:55:00;101201.0;;;11.47;53.59
32452;BME280;45528;52.102;5.242;2023-03-16T02:58:14;101203.0;;;11.32;53.98
32452;BME280;45528;52.102;5.242;2023-03-16T02:59:50;101201.0;;;11.36;53.85
32452;BME280;45528;52.102;5.242;2023-03-16T03:01:26;101203.0;;;11.44;53.99
32452;BME280;45528;52.102;5.242;2023-03-16T03:03:03;101205.0;;;11.54;53.82
32452;BME280;45528;52.102;5.242;2023-03-16T03:06:17;101194.0;;;11.31;54.39
32452;BME280;45528;52.102;5.242;2023-03-16T03:07:53;101193.0;;;11.24;54.61
32452;BME280;45528;52.102;5.242;2023-03-16T03:09:30;101193.0;;;11.18;54.68
32452;BME280;45528;52.102;5.242;2023-03-16T03:12:42;101189.0;;;11.18;55.03
32452;BME280;45528;52.102;5.242;2023-03-16T03:14:18;101183.0;;;11.31;54.91
32452;BME280;45528;52.102;5.242;2023-03-16T03:15:54;101185.0;;;11.33;54.99
32452;BME280;45528;52.102;5.242;2023-03-16T03:19:07;101186.0;;;11.4;54.76
32452;BME280;45528;52.102;5.242;2023-03-16T03:20:43;101188.0;;;11.4;54.89
32452;BME280;45528;52.102;5.242;2023-03-16T03:22:20;101185.0;;;11.26;55.22
32452;BME280;45528;52.102;5.242;2023-03-16T03:23:56;101181.0;;;11.36;55.21
32452;BME280;45528;52.102;5.242;2023-03-16T03:27:08;101180.0;;;11.49;55.01
32452;BME280;45528;52.102;5.242;2023-03-16T03:28:45;101180.0;;;11.51;55.16
32452;BME280;45528;52.102;5.242;2023-03-16T03:30:22;101180.0;;;11.42;55.31
32452;BME280;45528;52.102;5.242;2023-03-16T03:33:39;101178.0;;;11.46;55.68
32452;BME280;45528;52.102;5.242;2023-03-16T03:35:15;101176.0;;;11.33;55.74
32452;BME280;45528;52.102;5.242;2023-03-16T03:36:51;101166.0;;;11.29;56.29
32452;BME280;45528;52.102;5.242;2023-03-16T03:40:05;101163.0;;;11.39;56.13
32452;BME280;45528;52.102;5.242;2023-03-16T03:41:41;101162.0;;;11.3;56.47
32452;BME280;45528;52.102;5.242;2023-03-16T03:43:18;101160.0;;;11.35;56.35
32452;BME280;45528;52.102;5.242;2023-03-16T03:44:55;101155.0;;;11.13;56.99
32452;BME280;45528;52.102;5.242;2023-03-16T03:48:07;101149.0;;;11.13;57.31
32452;BME280;45528;52.102;5.242;2023-03-16T03:49:43;101148.0;;;10.97;57.77
32452;BME280;45528;52.102;5.242;2023-03-16T03:51:19;101153.0;;;11.21;57.46
32452;BME280;45528;52.102;5.242;2023-03-16T03:54:31;101152.0;;;11.24;57.76
32452;BME280;45528;52.102;5.242;2023-03-16T03:56:07;101151.0;;;11.24;57.66
32452;BME280;45528;52.102;5.242;2023-03-16T03:57:44;101149.0;;;11.21;57.84
32452;BME280;45528;52.102;5.242;2023-03-16T04:00:56;101147.0;;;11.1;58.23
32452;BME280;45528;52.102;5.242;2023-03-16T04:02:32;101145.0;;;11.06;58.4
32452;BME280;45528;52.102;5.242;2023-03-16T04:04:09;101142.0;;;11.05;58.65
32452;BME280;45528;52.102;5.242;2023-03-16T04:05:45;101131.0;;;10.98;58.69
32452;BME280;45528;52.102;5.242;2023-03-16T04:08:57;101127.0;;;11.09;58.61
32452;BME280;45528;52.102;5.242;2023-03-16T04:10:33;101125.0;;;11.13;58.43
32452;BME280;45528;52.102;5.242;2023-03-16T04:12:10;101122.0;;;11.01;58.62
32452;BME280;45528;52.102;5.242;2023-03-16T04:15:26;101123.0;;;11.17;58.47
32452;BME280;45528;52.102;5.242;2023-03-16T04:17:02;101121.0;;;11.14;58.5
32452;BME280;45528;52.102;5.242;2023-03-16T04:18:38;101120.0;;;11.02;58.8
32452;BME280;45528;52.102;5.242;2023-03-16T04:21:51;101112.0;;;10.98;58.98
32452;BME280;45528;52.102;5.242;2023-03-16T04:23:27;101114.0;;;10.99;58.66
32452;BME280;45528;52.102;5.242;2023-03-16T04:25:04;101115.0;;;10.99;58.66
32452;BME280;45528;52.102;5.242;2023-03-16T04:28:16;101115.0;;;10.97;58.97
32452;BME280;45528;52.102;5.242;2023-03-16T04:29:52;101118.0;;;10.98;59.07
32452;BME280;45528;52.102;5.242;2023-03-16T04:31:28;101113.0;;;11.05;58.74
32452;BME280;45528;52.102;5.242;2023-03-16T04:33:04;101114.0;;;11.01;58.92
32452;BME280;45528;52.102;5.242;2023-03-16T04:36:16;101111.0;;;11.14;58.58
32452;BME280;45528;52.102;5.242;2023-03-16T04:37:53;101112.0;;;10.9;58.78
32452;BME280;45528;52.102;5.242;2023-03-16T04:39:29;101114.0;;;10.94;59.05
32452;BME280;45528;52.102;5.242;2023-03-16T04:42:42;101113.0;;;11.0;58.85
32452;BME280;45528;52.102;5.242;2023-03-16T04:44:19;101111.0;;;11.0;58.68
32452;BME280;45528;52.102;5.242;2023-03-16T04:45:55;101112.0;;;11.06;58.69
32452;BME280;45528;52.102;5.242;2023-03-16T04:49:08;101110.0;;;10.9;58.78
32452;BME280;45528;52.102;5.242;2023-03-16T04:50:46;101109.0;;;10.98;58.95
32452;BME280;45528;52.102;5.242;2023-03-16T04:52:24;101103.0;;;11.02;58.86
32452;BME280;45528;52.102;5.242;2023-03-16T04:54:00;101100.0;;;11.02;58.58
32452;BME280;45528;52.102;5.242;2023-03-16T04:57:12;101099.0;;;11.05;58.44
32452;BME280;45528;52.102;5.242;2023-03-16T04:58:49;101095.0;;;10.99;58.53
32452;BME280;45528;52.102;5.242;2023-03-16T05:00:25;101100.0;;;10.95;58.66
32452;BME280;45528;52.102;5.242;2023-03-16T05:03:40;101098.0;;;10.72;58.82
32452;BME280;45528;52.102;5.242;2023-03-16T05:05:16;101100.0;;;11.01;58.32
32452;BME280;45528;52.102;5.242;2023-03-16T05:06:53;101107.0;;;11.02;58.3
32452;BME280;45528;52.102;5.242;2023-03-16T05:10:06;101108.0;;;10.96;58.53
32452;BME280;45528;52.102;5.242;2023-03-16T05:11:42;101112.0;;;10.83;58.37
32452;BME280;45528;52.102;5.242;2023-03-16T05:13:18;101107.0;;;11.14;58.27
32452;BME280;45528;52.102;5.242;2023-03-16T05:14:55;101105.0;;;11.1;58.2
32452;BME280;45528;52.102;5.242;2023-03-16T05:18:08;101101.0;;;11.17;58.24
32452;BME280;45528;52.102;5.242;2023-03-16T05:19:44;101101.0;;;10.92;58.66
32452;BME280;45528;52.102;5.242;2023-03-16T05:21:20;101105.0;;;11.02;58.47
32452;BME280;45528;52.102;5.242;2023-03-16T05:24:32;101103.0;;;10.88;58.65
32452;BME280;45528;52.102;5.242;2023-03-16T05:26:08;101107.0;;;10.89;58.9
32452;BME280;45528;52.102;5.242;2023-03-16T05:27:47;101101.0;;;11.04;58.68
32452;BME280;45528;52.102;5.242;2023-03-16T05:31:00;101106.0;;;10.9;58.9
32452;BME280;45528;52.102;5.242;2023-03-16T05:32:36;101103.0;;;10.88;59.19
32452;BME280;45528;52.102;5.242;2023-03-16T05:34:13;101102.0;;;10.9;59.11
32452;BME280;45528;52.102;5.242;2023-03-16T05:35:49;101094.0;;;10.91;59.25
32452;BME280;45528;52.102;5.242;2023-03-16T05:39:02;101096.0;;;10.83;59.54
32452;BME280;45528;52.102;5.242;2023-03-16T05:40:38;101096.0;;;10.9;59.51
32452;BME280;45528;52.102;5.242;2023-03-16T05:42:14;101089.0;;;10.85;59.46
32452;BME280;45528;52.102;5.242;2023-03-16T05:45:27;101091.0;;;10.84;59.58
32452;BME280;45528;52.102;5.242;2023-03-16T05:47:03;101088.0;;;10.84;59.65
32452;BME280;45528;52.102;5.242;2023-03-16T05:48:39;101080.0;;;10.79;59.8
32452;BME280;45528;52.102;5.242;2023-03-16T05:51:52;101073.0;;;10.57;60.23
32452;BME280;45528;52.102;5.242;2023-03-16T05:53:28;101078.0;;;10.9;59.75
32452;BME280;45528;52.102;5.242;2023-03-16T05:55:06;101076.0;;;11.05;59.36
32452;BME280;45528;52.102;5.242;2023-03-16T05:56:43;101077.0;;;10.9;59.53
32452;BME280;45528;52.102;5.242;2023-03-16T05:59:55;101078.0;;;10.99;59.44
32452;BME280;45528;52.102;5.242;2023-03-16T06:01:31;101080.0;;;11.08;59.36
32452;BME280;45528;52.102;5.242;2023-03-16T06:03:07;101080.0;;;10.79;59.76
32452;BME280;45528;52.102;5.242;2023-03-16T06:06:20;101082.0;;;10.89;59.75
32452;BME280;45528;52.102;5.242;2023-03-16T06:07:57;101077.0;;;10.83;60.2
32452;BME280;45528;52.102;5.242;2023-03-16T06:09:34;101076.0;;;10.84;60.0
32452;BME280;45528;52.102;5.242;2023-03-16T06:12:47;101077.0;;;10.79;59.67
32452;BME280;45528;52.102;5.242;2023-03-16T06:14:23;101073.0;;;10.79;60.14
32452;BME280;45528;52.102;5.242;2023-03-16T06:15:59;101076.0;;;10.87;59.74
32452;BME280;45528;52.102;5.242;2023-03-16T06:17:36;101073.0;;;10.94;59.71
32452;BME280;45528;52.102;5.242;2023-03-16T06:20:49;101073.0;;;10.91;59.58
32452;BME280;45528;52.102;5.242;2023-03-16T06:22:25;101077.0;;;10.73;60.09
32452;BME280;45528;52.102;5.242;2023-03-16T06:24:03;101074.0;;;10.83;60.12
32452;BME280;45528;52.102;5.242;2023-03-16T06:27:16;101067.0;;;10.9;59.84
32452;BME280;45528;52.102;5.242;2023-03-16T06:28:53;101068.0;;;10.91;59.92
32452;BME280;45528;52.102;5.242;2023-03-16T06:30:29;101061.0;;;11.11;59.42
32452;BME280;45528;52.102;5.242;2023-03-16T06:33:41;101058.0;;;11.15;59.47
32452;BME280;45528;52.102;5.242;2023-03-16T06:35:18;101052.0;;;11.13;59.71
32452;BME280;45528;52.102;5.242;2023-03-16T06:36:53;101050.0;;;11.1;60.04
32452;BME280;45528;52.102;5.242;2023-03-16T06:38:30;101051.0;;;11.07;60.11
32452;BME280;45528;52.102;5.242;2023-03-16T06:41:44;101052.0;;;11.2;59.96
32452;BME280;45528;52.102;5.242;2023-03-16T06:43:20;101048.0;;;11.01;60.56
32452;BME280;45528;52.102;5.242;2023-03-16T06:44:56;101051.0;;;11.04;60.49
32452;BME280;45528;52.102;5.242;2023-03-16T06:48:08;101047.0;;;11.12;60.35
32452;BME280;45528;52.102;5.242;2023-03-16T06:49:44;101050.0;;;11.16;60.17
32452;BME280;45528;52.102;5.242;2023-03-16T06:51:21;101051.0;;;11.11;60.74
32452;BME280;45528;52.102;5.242;2023-03-16T06:54:33;101049.0;;;11.01;60.9
32452;BME280;45528;52.102;5.242;2023-03-16T06:56:09;101048.0;;;11.04;60.7
32452;BME280;45528;52.102;5.242;2023-03-16T06:57:45;101052.0;;;11.12;60.5
32452;BME280;45528;52.102;5.242;2023-03-16T07:01:00;101046.0;;;11.29;59.85
32452;BME280;45528;52.102;5.242;2023-03-16T07:02:37;101042.0;;;11.16;60.39
32452;BME280;45528;52.102;5.242;2023-03-16T07:04:13;101048.0;;;11.28;60.0
32452;BME280;45528;52.102;5.242;2023-03-16T07:05:49;101041.0;;;11.1;60.17
32452;BME280;45528;52.102;5.242;2023-03-16T07:09:01;101037.0;;;11.15;60.37
32452;BME280;45528;52.102;5.242;2023-03-16T07:10:38;101036.0;;;11.04;60.55
32452;BME280;45528;52.102;5.242;2023-03-16T07:12:14;101039.0;;;11.2;60.11
32452;BME280;45528;52.102;5.242;2023-03-16T07:15:27;101034.0;;;11.13;60.22
32452;BME280;45528;52.102;5.242;2023-03-16T07:17:03;101039.0;;;11.13;60.1
32452;BME280;45528;52.102;5.242;2023-03-16T07:18:39;101035.0;;;11.04;60.64
32452;BME280;45528;52.102;5.242;2023-03-16T07:21:51;101037.0;;;11.35;60.53
32452;BME280;45528;52.102;5.242;2023-03-16T07:23:27;101038.0;;;11.44;60.19
32452;BME280;45528;52.102;5.242;2023-03-16T07:25:05;101031.0;;;11.51;60.15
32452;BME280;45528;52.102;5.242;2023-03-16T07:26:42;101033.0;;;11.03;60.97
32452;BME280;45528;52.102;5.242;2023-03-16T07:29:55;101026.0;;;11.34;60.08
32452;BME280;45528;52.102;5.242;2023-03-16T07:31:31;101031.0;;;11.33;60.6
32452;BME280;45528;52.102;5.242;2023-03-16T07:33:07;101022.0;;;11.47;60.34
32452;BME280;45528;52.102;5.242;2023-03-16T07:36:19;101023.0;;;11.36;60.59
32452;BME280;45528;52.102;5.242;2023-03-16T07:37:56;101030.0;;;11.13;60.92
32452;BME280;45528;52.102;5.242;2023-03-16T07:39:32;101030.0;;;11.21;60.95
32452;BME280;45528;52.102;5.242;2023-03-16T07:42:44;101033.0;;;11.31;60.75
32452;BME280;45528;52.102;5.242;2023-03-16T07:44:20;101036.0;;;11.13;61.03
32452;BME280;45528;52.102;5.242;2023-03-16T07:45:57;101026.0;;;11.19;60.97
32452;BME280;45528;52.102;5.242;2023-03-16T07:47:33;101030.0;;;11.25;60.89
32452;BME280;45528;52.102;5.242;2023-03-16T07:50:46;101037.0;;;11.22;60.52
32452;BME280;45528;52.102;5.242;2023-03-16T07:52:23;101049.0;;;11.32;60.63
32452;BME280;45528;52.102;5.242;2023-03-16T07:53:59;101044.0;;;11.2;60.81
32452;BME280;45528;52.102;5.242;2023-03-16T07:57:11;101048.0;;;11.18;60.88
32452;BME280;45528;52.102;5.242;2023-03-16T07:58:47;101051.0;;;11.22;60.55
32452;BME280;45528;52.102;5.242;2023-03-16T08:00:24;101039.0;;;11.29;60.52
32452;BME280;45528;52.102;5.242;2023-03-16T08:03:36;101031.0;;;11.5;60.36
32452;BME280;45528;52.102;5.242;2023-03-16T08:05:13;101027.0;;;11.48;59.99
32452;BME280;45528;52.102;5.242;2023-03-16T08:06:49;101021.0;;;11.83;59.75
32452;BME280;45528;52.102;5.242;2023-03-16T08:10:02;101025.0;;;11.91;59.49
32452;BME280;45528;52.102;5.242;2023-03-16T08:11:38;101023.0;;;11.68;59.78
32452;BME280;45528;52.102;5.242;2023-03-16T08:13:14;101011.0;;;11.76;60.06
32452;BME280;45528;52.102;5.242;2023-03-16T08:14:51;101010.0;;;11.88;59.46
32452;BME280;45528;52.102;5.242;2023-03-16T08:18:03;101008.0;;;11.81;59.28
32452;BME280;45528;52.102;5.242;2023-03-16T08:19:39;101006.0;;;11.73;59.05
32452;BME280;45528;52.102;5.242;2023-03-16T08:21:15;101010.0;;;11.85;59.01
32452;BME280;45528;52.102;5.242;2023-03-16T08:24:29;101015.0;;;11.75;58.74
32452;BME280;45528;52.102;5.242;2023-03-16T08:26:05;101008.0;;;11.75;58.27
32452;BME280;45528;52.102;5.242;2023-03-16T08:27:41;100998.0;;;12.0;58.12
32452;BME280;45528;52.102;5.242;2023-03-16T08:30:54;101011.0;;;12.04;58.04
32452;BME280;45528;52.102;5.242;2023-03-16T08:32:31;101006.0;;;11.78;58.12
32452;BME280;45528;52.102;5.242;2023-03-16T08:34:08;101017.0;;;11.83;58.1
32452;BME280;45528;52.102;5.242;2023-03-16T08:35:45;101017.0;;;11.85;57.74
32452;BME280;45528;52.102;5.242;2023-03-16T08:38:59;101020.0;;;11.91;57.58
32452;BME280;45528;52.102;5.242;2023-03-16T08:40:35;101022.0;;;11.94;57.52
32452;BME280;45528;52.102;5.242;2023-03-16T08:42:12;101024.0;;;11.94;57.34
32452;BME280;45528;52.102;5.242;2023-03-16T08:45:24;101027.0;;;12.12;57.0
32452;BME280;45528;52.102;5.242;2023-03-16T08:47:00;101025.0;;;12.22;56.98
32452;BME280;45528;52.102;5.242;2023-03-16T08:48:36;101026.0;;;12.39;56.43
32452;BME280;45528;52.102;5.242;2023-03-16T08:51:49;101021.0;;;12.36;56.18
32452;BME280;45528;52.102;5.242;2023-03-16T08:53:25;101017.0;;;12.19;56.28
32452;BME280;45528;52.102;5.242;2023-03-16T08:55:01;101019.0;;;12.45;55.87
32452;BME280;45528;52.102;5.242;2023-03-16T08:56:38;101008.0;;;12.13;56.32
32452;BME280;45528;52.102;5.242;2023-03-16T08:59:50;101007.0;;;12.2;56.25
32452;BME280;45528;52.102;5.242;2023-03-16T09:01:26;101008.0;;;12.22;56.01
32452;BME280;45528;52.102;5.242;2023-03-16T09:03:02;101003.0;;;12.21;55.88
32452;BME280;45528;52.102;5.242;2023-03-16T09:06:17;100998.0;;;12.23;55.96
32452;BME280;45528;52.102;5.242;2023-03-16T09:07:54;100997.0;;;12.29;55.4
32452;BME280;45528;52.102;5.242;2023-03-16T09:09:30;100992.0;;;12.46;55.39
32452;BME280;45528;52.102;5.242;2023-03-16T09:12:45;100992.0;;;12.58;54.94
32452;BME280;45528;52.102;5.242;2023-03-16T09:14:21;100997.0;;;12.79;54.7
32452;BME280;45528;52.102;5.242;2023-03-16T09:15:57;100992.0;;;12.6;54.65
32452;BME280;45528;52.102;5.242;2023-03-16T09:17:33;100998.0;;;12.71;54.46
32452;BME280;45528;52.102;5.242;2023-03-16T09:20:46;101003.0;;;12.66;54.22
32452;BME280;45528;52.102;5.242;2023-03-16T09:26:13;101000.0;;;12.65;54.32
32452;BME280;45528;52.102;5.242;2023-03-16T09:29:26;100996.0;;;12.51;54.49
32452;BME280;45528;52.102;5.242;2023-03-16T09:31:02;100995.0;;;12.65;53.94
32452;BME280;45528;52.102;5.242;2023-03-16T09:32:39;100997.0;;;12.87;54.01
32452;BME280;45528;52.102;5.242;2023-03-16T09:34:15;100992.0;;;13.12;53.5
32452;BME280;45528;52.102;5.242;2023-03-16T09:37:28;101001.0;;;13.04;53.48
32452;BME280;45528;52.102;5.242;2023-03-16T09:39:04;100991.0;;;13.17;53.01
32452;BME280;45528;52.102;5.242;2023-03-16T09:40:40;100992.0;;;13.17;53.18
32452;BME280;45528;52.102;5.242;2023-03-16T09:44:08;100991.0;;;13.21;52.75
32452;BME280;45528;52.102;5.242;2023-03-16T09:45:58;100985.0;;;13.24;52.61
32452;BME280;45528;52.102;5.242;2023-03-16T09:47:39;100983.0;;;13.6;52.13
32452;BME280;45528;52.102;5.242;2023-03-16T09:49:18;100986.0;;;13.44;51.71
32452;BME280;45528;52.102;5.242;2023-03-16T09:52:41;100981.0;;;13.44;51.8
32452;BME280;45528;52.102;5.242;2023-03-16T09:54:23;100980.0;;;13.78;51.24
32452;BME280;45528;52.102;5.242;2023-03-16T09:56:07;100978.0;;;13.76;51.21
32452;BME280;45528;52.102;5.242;2023-03-16T09:57:45;100984.0;;;14.14;51.2
32452;BME280;45528;52.102;5.242;2023-03-16T09:59:23;100978.0;;;13.95;50.81
32452;BME280;45528;52.102;5.242;2023-03-16T10:02:58;100976.0;;;14.0;50.8
32452;BME280;45528;52.102;5.242;2023-03-16T10:04:56;100975.0;;;13.84;50.8
32452;BME280;45528;52.102;5.242;2023-03-16T10:06:44;100976.0;;;14.04;50.75
32452;BME280;45528;52.102;5.242;2023-03-16T10:08:30;100981.0;;;14.04;50.2
32452;BME280;45528;52.102;5.242;2023-03-16T10:10:20;100974.0;;;14.34;49.48
32452;BME280;45528;52.102;5.242;2023-03-16T10:12:02;100976.0;;;14.35;49.85
32452;BME280;45528;52.102;5.242;2023-03-16T10:15:25;100975.0;;;14.39;49.58
32452;BME280;45528;52.102;5.242;2023-03-16T10:17:10;100966.0;;;14.56;49.14
32452;BME280;45528;52.102;5.242;2023-03-16T10:18:56;100976.0;;;14.43;49.12
32452;BME280;45528;52.102;5.242;2023-03-16T10:20:35;100971.0;;;14.17;48.8
32452;BME280;45528;52.102;5.242;2023-03-16T10:23:56;100972.0;;;14.72;48.83
32452;BME280;45528;52.102;5.242;2023-03-16T10:25:41;100974.0;;;15.03;48.61
32452;BME280;45528;52.102;5.242;2023-03-16T10:27:25;100968.0;;;15.0;48.02
32452;BME280;45528;52.102;5.242;2023-03-16T10:29:03;100969.0;;;14.81;48.0
32452;BME280;45528;52.102;5.242;2023-03-16T10:32:18;100956.0;;;15.09;47.68
32452;BME280;45528;52.102;5.242;2023-03-16T10:33:59;100955.0;;;15.2;47.58
32452;BME280;45528;52.102;5.242;2023-03-16T10:35:43;100953.0;;;15.42;47.15
32452;BME280;45528;52.102;5.242;2023-03-16T10:37:23;100956.0;;;15.39;46.91
32452;BME280;45528;52.102;5.242;2023-03-16T10:40:40;100946.0;;;15.65;46.31
32452;BME280;45528;52.102;5.242;2023-03-16T10:42:19;100939.0;;;15.5;46.39
32452;BME280;45528;52.102;5.242;2023-03-16T10:43:57;100939.0;;;15.7;45.84
32452;BME280;45528;52.102;5.242;2023-03-16T10:45:35;100937.0;;;15.76;46.11
32452;BME280;45528;52.102;5.242;2023-03-16T10:48:55;100935.0;;;15.49;45.98
32452;BME280;45528;52.102;5.242;2023-03-16T10:50:32;100938.0;;;15.56;45.86
32452;BME280;45528;52.102;5.242;2023-03-16T10:52:14;100943.0;;;15.77;45.81
32452;BME280;45528;52.102;5.242;2023-03-16T10:53:56;100940.0;;;15.75;45.72
32452;BME280;45528;52.102;5.242;2023-03-16T10:57:22;100937.0;;;15.93;45.65
32452;BME280;45528;52.102;5.242;2023-03-16T10:59:13;100933.0;;;16.11;45.25
32452;BME280;45528;52.102;5.242;2023-03-16T11:01:09;100926.0;;;16.18;45.67
32452;BME280;45528;52.102;5.242;2023-03-16T11:02:46;100926.0;;;16.05;45.42
32452;BME280;45528;52.102;5.242;2023-03-16T11:06:00;100923.0;;;15.87;45.16
32452;BME280;45528;52.102;5.242;2023-03-16T11:07:38;100920.0;;;16.11;44.7
32452;BME280;45528;52.102;5.242;2023-03-16T11:09:19;100920.0;;;15.83;45.23
32452;BME280;45528;52.102;5.242;2023-03-16T11:12:35;100915.0;;;15.95;44.89
32452;BME280;45528;52.102;5.242;2023-03-16T11:14:12;100916.0;;;16.05;45.26